sensor_id;sensor_type;location;lat;lon;timestamp;temperature;humidity
57576;DHT22;43412;-33.800;150.804;2022-07-03T00:00:09;14.80;99.90
57576;DHT22;43412;-33.800;150.804;2022-07-03T00:02:37;14.80;99.90
57576;DHT22;43412;-33.800;150.804;2022-07-03T00:05:04;14.90;99.90
57576;DHT22;43412;-33.800;150.804;2022-07-03T00:07:32;14.90;99.90
57576;DHT22;43412;-33.800;150.804;2022-07-03T00:09:59;14.80;99.90
57576;DHT22;43412;-33.800;150.804;2022-07-03T00:12:27;14.80;99.90
57576;DHT22;43412;-33.800;150.804;2022-07-03T00:14:54;14.90;99.90
57576;DHT22;43412;-33.800;150.804;2022-07-03T00:17:21;15.00;99.90
57576;DHT22;43412;-33.800;150.804;2022-07-03T00:19:49;15.10;99.90
57576;DHT22;43412;-33.800;150.804;2022-07-03T00:22:16;15.20;99.90
57576;DHT22;43412;-33.800;150.804;2022-07-03T00:24:51;15.30;99.90
57576;DHT22;43412;-33.800;150.804;2022-07-03T00:27:21;15.30;99.90
57576;DHT22;43412;-33.800;150.804;2022-07-03T00:29:50;15.30;99.90
57576;DHT22;43412;-33.800;150.804;2022-07-03T00:32:23;15.40;99.90
57576;DHT22;43412;-33.800;150.804;2022-07-03T00:34:52;15.50;99.90
57576;DHT22;43412;-33.800;150.804;2022-07-03T00:37:21;15.50;99.90
57576;DHT22;43412;-33.800;150.804;2022-07-03T00:39:49;15.50;99.90
57576;DHT22;43412;-33.800;150.804;2022-07-03T00:42:17;15.60;99.90
57576;DHT22;43412;-33.800;150.804;2022-07-03T00:44:50;15.60;99.90
57576;DHT22;43412;-33.800;150.804;2022-07-03T00:47:20;15.70;99.90
57576;DHT22;43412;-33.800;150.804;2022-07-03T00:49:55;15.80;99.90
57576;DHT22;43412;-33.800;150.804;2022-07-03T00:52:33;15.80;99.90
57576;DHT22;43412;-33.800;150.804;2022-07-03T00:55:01;15.80;99.90
57576;DHT22;43412;-33.800;150.804;2022-07-03T00:57:30;15.90;99.90
57576;DHT22;43412;-33.800;150.804;2022-07-03T00:59:58;16.00;99.90
57576;DHT22;43412;-33.800;150.804;2022-07-03T01:05:39;16.00;99.90
57576;DHT22;43412;-33.800;150.804;2022-07-03T01:16:57;15.90;99.90
57576;DHT22;43412;-33.800;150.804;2022-07-03T01:19:45;16.00;99.90
57576;DHT22;43412;-33.800;150.804;2022-07-03T01:22:32;16.00;99.90
57576;DHT22;43412;-33.800;150.804;2022-07-03T01:30:38;16.00;99.90
57576;DHT22;43412;-33.800;150.804;2022-07-03T01:33:14;16.00;99.90
57576;DHT22;43412;-33.800;150.804;2022-07-03T01:35:54;16.00;99.90
57576;DHT22;43412;-33.800;150.804;2022-07-03T01:38:27;16.10;99.90
57576;DHT22;43412;-33.800;150.804;2022-07-03T01:40:57;16.10;99.90
57576;DHT22;43412;-33.800;150.804;2022-07-03T01:43:28;16.10;99.90
57576;DHT22;43412;-33.800;150.804;2022-07-03T01:45:58;16.20;99.90
57576;DHT22;43412;-33.800;150.804;2022-07-03T01:48:27;16.30;99.90
57576;DHT22;43412;-33.800;150.804;2022-07-03T01:50:56;16.40;99.90
57576;DHT22;43412;-33.800;150.804;2022-07-03T01:53:25;16.40;99.90
57576;DHT22;43412;-33.800;150.804;2022-07-03T01:55:56;16.30;99.90
57576;DHT22;43412;-33.800;150.804;2022-07-03T01:58:24;16.20;99.90
57576;DHT22;43412;-33.800;150.804;2022-07-03T02:01:02;16.10;99.90
57576;DHT22;43412;-33.800;150.804;2022-07-03T02:03:34;16.10;99.90
57576;DHT22;43412;-33.800;150.804;2022-07-03T02:06:15;16.10;99.90
57576;DHT22;43412;-33.800;150.804;2022-07-03T02:09:07;16.00;99.90
57576;DHT22;43412;-33.800;150.804;2022-07-03T02:11:38;15.80;99.90
57576;DHT22;43412;-33.800;150.804;2022-07-03T02:14:16;15.70;99.90
57576;DHT22;43412;-33.800;150.804;2022-07-03T02:17:11;15.60;99.90
57576;DHT22;43412;-33.800;150.804;2022-07-03T02:20:04;15.60;99.90
57576;DHT22;43412;-33.800;150.804;2022-07-03T02:22:57;15.60;99.90
57576;DHT22;43412;-33.800;150.804;2022-07-03T02:25:35;15.70;99.90
57576;DHT22;43412;-33.800;150.804;2022-07-03T02:30:57;15.80;99.90
57576;DHT22;43412;-33.800;150.804;2022-07-03T02:33:28;15.90;99.90
57576;DHT22;43412;-33.800;150.804;2022-07-03T02:35:58;15.90;99.90
57576;DHT22;43412;-33.800;150.804;2022-07-03T02:38:28;16.00;99.90
57576;DHT22;43412;-33.800;150.804;2022-07-03T02:44:21;16.10;99.90
57576;DHT22;43412;-33.800;150.804;2022-07-03T02:49:53;16.30;99.90
57576;DHT22;43412;-33.800;150.804;2022-07-03T03:01:54;16.50;99.90
57576;DHT22;43412;-33.800;150.804;2022-07-03T03:07:08;16.50;99.90
57576;DHT22;43412;-33.800;150.804;2022-07-03T03:09:44;16.50;99.90
57576;DHT22;43412;-33.800;150.804;2022-07-03T03:12:13;16.50;99.90
57576;DHT22;43412;-33.800;150.804;2022-07-03T03:14:45;16.40;99.90
57576;DHT22;43412;-33.800;150.804;2022-07-03T03:17:29;16.30;99.90
57576;DHT22;43412;-33.800;150.804;2022-07-03T03:20:02;16.20;99.90
57576;DHT22;43412;-33.800;150.804;2022-07-03T03:25:29;16.10;99.90
57576;DHT22;43412;-33.800;150.804;2022-07-03T03:27:58;16.00;99.90
57576;DHT22;43412;-33.800;150.804;2022-07-03T03:30:25;15.80;99.90
57576;DHT22;43412;-33.800;150.804;2022-07-03T03:32:53;15.70;99.90
57576;DHT22;43412;-33.800;150.804;2022-07-03T03:35:20;15.70;99.90
57576;DHT22;43412;-33.800;150.804;2022-07-03T03:37:48;15.50;99.90
57576;DHT22;43412;-33.800;150.804;2022-07-03T03:40:17;15.50;99.90
57576;DHT22;43412;-33.800;150.804;2022-07-03T03:42:45;15.50;99.90
57576;DHT22;43412;-33.800;150.804;2022-07-03T03:45:12;15.40;99.90
57576;DHT22;43412;-33.800;150.804;2022-07-03T03:47:40;15.30;99.90
57576;DHT22;43412;-33.800;150.804;2022-07-03T03:50:08;15.30;99.90
57576;DHT22;43412;-33.800;150.804;2022-07-03T03:52:36;15.20;99.90
57576;DHT22;43412;-33.800;150.804;2022-07-03T03:55:04;15.20;99.90
57576;DHT22;43412;-33.800;150.804;2022-07-03T03:57:31;15.10;99.90
57576;DHT22;43412;-33.800;150.804;2022-07-03T03:59:59;15.10;99.90
57576;DHT22;43412;-33.800;150.804;2022-07-03T04:02:27;15.10;99.90
57576;DHT22;43412;-33.800;150.804;2022-07-03T04:04:54;15.10;99.90
57576;DHT22;43412;-33.800;150.804;2022-07-03T04:07:22;15.10;99.90
57576;DHT22;43412;-33.800;150.804;2022-07-03T04:09:49;15.10;99.90
57576;DHT22;43412;-33.800;150.804;2022-07-03T04:12:16;15.10;99.90
57576;DHT22;43412;-33.800;150.804;2022-07-03T04:14:44;15.20;99.90
57576;DHT22;43412;-33.800;150.804;2022-07-03T04:17:11;15.20;99.90
57576;DHT22;43412;-33.800;150.804;2022-07-03T04:19:39;15.20;99.90
57576;DHT22;43412;-33.800;150.804;2022-07-03T04:22:06;15.20;99.90
57576;DHT22;43412;-33.800;150.804;2022-07-03T04:24:37;15.20;99.90
57576;DHT22;43412;-33.800;150.804;2022-07-03T04:27:05;15.20;99.90
57576;DHT22;43412;-33.800;150.804;2022-07-03T04:29:32;15.20;99.90
57576;DHT22;43412;-33.800;150.804;2022-07-03T04:32:00;15.10;99.90
57576;DHT22;43412;-33.800;150.804;2022-07-03T04:34:27;15.00;99.90
57576;DHT22;43412;-33.800;150.804;2022-07-03T04:36:54;15.10;99.90
57576;DHT22;43412;-33.800;150.804;2022-07-03T04:39:22;15.00;99.90
57576;DHT22;43412;-33.800;150.804;2022-07-03T04:41:49;15.00;99.90
57576;DHT22;43412;-33.800;150.804;2022-07-03T04:44:16;14.90;99.90
57576;DHT22;43412;-33.800;150.804;2022-07-03T04:46:43;15.00;99.90
57576;DHT22;43412;-33.800;150.804;2022-07-03T04:49:11;14.90;99.90
57576;DHT22;43412;-33.800;150.804;2022-07-03T04:51:38;14.90;99.90
57576;DHT22;43412;-33.800;150.804;2022-07-03T04:54:05;14.90;99.90
57576;DHT22;43412;-33.800;150.804;2022-07-03T04:56:33;14.90;99.90
57576;DHT22;43412;-33.800;150.804;2022-07-03T04:59:00;14.90;99.90
57576;DHT22;43412;-33.800;150.804;2022-07-03T05:01:27;14.90;99.90
57576;DHT22;43412;-33.800;150.804;2022-07-03T05:03:55;14.90;99.90
57576;DHT22;43412;-33.800;150.804;2022-07-03T05:06:22;14.90;99.90
57576;DHT22;43412;-33.800;150.804;2022-07-03T05:08:49;14.90;99.90
57576;DHT22;43412;-33.800;150.804;2022-07-03T05:11:16;14.90;99.90
57576;DHT22;43412;-33.800;150.804;2022-07-03T05:13:44;14.90;99.90
57576;DHT22;43412;-33.800;150.804;2022-07-03T05:16:11;14.90;99.90
57576;DHT22;43412;-33.800;150.804;2022-07-03T05:18:39;14.90;99.90
57576;DHT22;43412;-33.800;150.804;2022-07-03T05:21:06;14.90;99.90
57576;DHT22;43412;-33.800;150.804;2022-07-03T05:23:33;14.90;99.90
57576;DHT22;43412;-33.800;150.804;2022-07-03T05:26:01;14.90;99.90
57576;DHT22;43412;-33.800;150.804;2022-07-03T05:28:28;14.90;99.90
57576;DHT22;43412;-33.800;150.804;2022-07-03T05:30:55;14.90;99.90
57576;DHT22;43412;-33.800;150.804;2022-07-03T05:33:23;14.90;99.90
57576;DHT22;43412;-33.800;150.804;2022-07-03T05:35:50;14.80;99.90
57576;DHT22;43412;-33.800;150.804;2022-07-03T05:38:17;14.80;99.90
57576;DHT22;43412;-33.800;150.804;2022-07-03T05:41:04;14.70;99.90
57576;DHT22;43412;-33.800;150.804;2022-07-03T05:43:32;14.70;99.90
57576;DHT22;43412;-33.800;150.804;2022-07-03T05:45:59;14.70;99.90
57576;DHT22;43412;-33.800;150.804;2022-07-03T05:48:27;14.60;99.90
57576;DHT22;43412;-33.800;150.804;2022-07-03T05:50:54;14.60;99.90
57576;DHT22;43412;-33.800;150.804;2022-07-03T05:53:22;14.60;99.90
57576;DHT22;43412;-33.800;150.804;2022-07-03T05:55:49;14.60;99.90
57576;DHT22;43412;-33.800;150.804;2022-07-03T05:58:17;14.50;99.90
57576;DHT22;43412;-33.800;150.804;2022-07-03T06:00:44;14.50;99.90
57576;DHT22;43412;-33.800;150.804;2022-07-03T06:03:11;14.50;99.90
57576;DHT22;43412;-33.800;150.804;2022-07-03T06:05:39;14.50;99.90
57576;DHT22;43412;-33.800;150.804;2022-07-03T06:08:06;14.50;99.90
57576;DHT22;43412;-33.800;150.804;2022-07-03T06:10:34;14.40;99.90
57576;DHT22;43412;-33.800;150.804;2022-07-03T06:13:02;14.40;99.90
57576;DHT22;43412;-33.800;150.804;2022-07-03T06:15:29;14.50;99.90
57576;DHT22;43412;-33.800;150.804;2022-07-03T06:17:57;14.40;99.90
57576;DHT22;43412;-33.800;150.804;2022-07-03T06:20:25;14.40;99.90
57576;DHT22;43412;-33.800;150.804;2022-07-03T06:22:52;14.40;99.90
57576;DHT22;43412;-33.800;150.804;2022-07-03T06:25:19;14.30;99.90
57576;DHT22;43412;-33.800;150.804;2022-07-03T06:27:47;14.30;99.90
57576;DHT22;43412;-33.800;150.804;2022-07-03T06:30:14;14.30;99.90
57576;DHT22;43412;-33.800;150.804;2022-07-03T06:32:41;14.20;99.90
57576;DHT22;43412;-33.800;150.804;2022-07-03T06:35:09;14.20;99.90
57576;DHT22;43412;-33.800;150.804;2022-07-03T06:37:36;14.20;99.90
57576;DHT22;43412;-33.800;150.804;2022-07-03T06:40:04;14.20;99.90
57576;DHT22;43412;-33.800;150.804;2022-07-03T06:42:32;14.10;99.90
57576;DHT22;43412;-33.800;150.804;2022-07-03T06:44:59;14.10;99.90
57576;DHT22;43412;-33.800;150.804;2022-07-03T06:47:26;14.10;99.90
57576;DHT22;43412;-33.800;150.804;2022-07-03T06:49:54;14.00;99.90
57576;DHT22;43412;-33.800;150.804;2022-07-03T06:52:21;14.00;99.90
57576;DHT22;43412;-33.800;150.804;2022-07-03T06:54:48;14.00;99.90
57576;DHT22;43412;-33.800;150.804;2022-07-03T06:57:16;13.90;99.90
57576;DHT22;43412;-33.800;150.804;2022-07-03T06:59:43;13.90;99.90
57576;DHT22;43412;-33.800;150.804;2022-07-03T07:02:11;13.90;99.90
57576;DHT22;43412;-33.800;150.804;2022-07-03T07:04:38;13.90;99.90
57576;DHT22;43412;-33.800;150.804;2022-07-03T07:07:08;13.80;99.90
57576;DHT22;43412;-33.800;150.804;2022-07-03T07:09:35;13.80;99.90
57576;DHT22;43412;-33.800;150.804;2022-07-03T07:12:03;13.80;99.90
57576;DHT22;43412;-33.800;150.804;2022-07-03T07:14:31;13.80;99.90
57576;DHT22;43412;-33.800;150.804;2022-07-03T07:17:01;13.80;99.90
57576;DHT22;43412;-33.800;150.804;2022-07-03T07:19:28;13.80;99.90
57576;DHT22;43412;-33.800;150.804;2022-07-03T07:21:55;13.80;99.90
57576;DHT22;43412;-33.800;150.804;2022-07-03T07:24:23;13.80;99.90
57576;DHT22;43412;-33.800;150.804;2022-07-03T07:26:50;13.80;99.90
57576;DHT22;43412;-33.800;150.804;2022-07-03T07:29:17;13.80;99.90
57576;DHT22;43412;-33.800;150.804;2022-07-03T07:31:45;13.80;99.90
57576;DHT22;43412;-33.800;150.804;2022-07-03T07:34:12;13.70;99.90
57576;DHT22;43412;-33.800;150.804;2022-07-03T07:36:40;13.70;99.90
57576;DHT22;43412;-33.800;150.804;2022-07-03T07:39:07;13.70;99.90
57576;DHT22;43412;-33.800;150.804;2022-07-03T07:41:37;13.80;99.90
57576;DHT22;43412;-33.800;150.804;2022-07-03T07:44:04;13.80;99.90
57576;DHT22;43412;-33.800;150.804;2022-07-03T07:46:34;13.80;99.90
57576;DHT22;43412;-33.800;150.804;2022-07-03T07:49:02;13.80;99.90
57576;DHT22;43412;-33.800;150.804;2022-07-03T07:51:29;13.70;99.90
57576;DHT22;43412;-33.800;150.804;2022-07-03T07:53:57;13.80;99.90
57576;DHT22;43412;-33.800;150.804;2022-07-03T07:56:26;13.80;99.90
57576;DHT22;43412;-33.800;150.804;2022-07-03T07:58:53;13.70;99.90
57576;DHT22;43412;-33.800;150.804;2022-07-03T08:01:21;13.70;99.90
57576;DHT22;43412;-33.800;150.804;2022-07-03T08:04:06;13.80;99.90
57576;DHT22;43412;-33.800;150.804;2022-07-03T08:06:52;13.70;99.90
57576;DHT22;43412;-33.800;150.804;2022-07-03T08:09:19;13.80;99.90
57576;DHT22;43412;-33.800;150.804;2022-07-03T08:11:48;13.70;99.90
57576;DHT22;43412;-33.800;150.804;2022-07-03T08:14:18;13.80;99.90
57576;DHT22;43412;-33.800;150.804;2022-07-03T08:16:45;13.70;99.90
57576;DHT22;43412;-33.800;150.804;2022-07-03T08:19:13;13.80;99.90
57576;DHT22;43412;-33.800;150.804;2022-07-03T08:21:41;13.80;99.90
57576;DHT22;43412;-33.800;150.804;2022-07-03T08:24:09;13.80;99.90
57576;DHT22;43412;-33.800;150.804;2022-07-03T08:26:37;13.80;99.90
57576;DHT22;43412;-33.800;150.804;2022-07-03T08:29:05;13.80;99.90
57576;DHT22;43412;-33.800;150.804;2022-07-03T08:31:32;13.80;99.90
57576;DHT22;43412;-33.800;150.804;2022-07-03T08:34:00;13.80;99.90
57576;DHT22;43412;-33.800;150.804;2022-07-03T08:36:27;13.90;99.90
57576;DHT22;43412;-33.800;150.804;2022-07-03T08:38:54;13.90;99.90
57576;DHT22;43412;-33.800;150.804;2022-07-03T08:41:23;13.90;99.90
57576;DHT22;43412;-33.800;150.804;2022-07-03T08:43:51;13.90;99.90
57576;DHT22;43412;-33.800;150.804;2022-07-03T08:46:20;13.90;99.90
57576;DHT22;43412;-33.800;150.804;2022-07-03T08:48:47;13.90;99.90
57576;DHT22;43412;-33.800;150.804;2022-07-03T08:51:19;13.90;99.90
57576;DHT22;43412;-33.800;150.804;2022-07-03T08:53:47;13.90;99.90
57576;DHT22;43412;-33.800;150.804;2022-07-03T08:56:15;13.90;99.90
57576;DHT22;43412;-33.800;150.804;2022-07-03T08:58:43;13.90;99.90
57576;DHT22;43412;-33.800;150.804;2022-07-03T09:01:12;13.90;99.90
57576;DHT22;43412;-33.800;150.804;2022-07-03T09:03:41;13.90;99.90
57576;DHT22;43412;-33.800;150.804;2022-07-03T09:06:09;13.90;99.90
57576;DHT22;43412;-33.800;150.804;2022-07-03T09:08:41;13.90;99.90
57576;DHT22;43412;-33.800;150.804;2022-07-03T09:11:08;14.00;99.90
57576;DHT22;43412;-33.800;150.804;2022-07-03T09:13:36;14.00;99.90
57576;DHT22;43412;-33.800;150.804;2022-07-03T09:16:04;14.00;99.90
57576;DHT22;43412;-33.800;150.804;2022-07-03T09:18:42;14.00;99.90
57576;DHT22;43412;-33.800;150.804;2022-07-03T09:21:09;14.00;99.90
57576;DHT22;43412;-33.800;150.804;2022-07-03T09:23:41;14.00;99.90
57576;DHT22;43412;-33.800;150.804;2022-07-03T09:26:17;14.00;99.90
57576;DHT22;43412;-33.800;150.804;2022-07-03T09:28:55;14.00;99.90
57576;DHT22;43412;-33.800;150.804;2022-07-03T09:31:24;14.00;99.90
57576;DHT22;43412;-33.800;150.804;2022-07-03T09:36:45;14.00;99.90
57576;DHT22;43412;-33.800;150.804;2022-07-03T09:39:27;14.00;99.90
57576;DHT22;43412;-33.800;150.804;2022-07-03T09:42:15;14.00;99.90
57576;DHT22;43412;-33.800;150.804;2022-07-03T09:44:46;13.90;99.90
57576;DHT22;43412;-33.800;150.804;2022-07-03T09:47:19;13.90;99.90
57576;DHT22;43412;-33.800;150.804;2022-07-03T09:52:32;13.90;99.90
57576;DHT22;43412;-33.800;150.804;2022-07-03T09:57:29;13.90;99.90
57576;DHT22;43412;-33.800;150.804;2022-07-03T10:03:06;14.00;99.90
57576;DHT22;43412;-33.800;150.804;2022-07-03T10:05:41;14.00;99.90
57576;DHT22;43412;-33.800;150.804;2022-07-03T10:10:44;14.00;99.90
57576;DHT22;43412;-33.800;150.804;2022-07-03T10:13:13;14.00;99.90
57576;DHT22;43412;-33.800;150.804;2022-07-03T10:15:42;14.00;99.90
57576;DHT22;43412;-33.800;150.804;2022-07-03T10:18:11;14.00;99.90
57576;DHT22;43412;-33.800;150.804;2022-07-03T10:20:46;14.00;99.90
57576;DHT22;43412;-33.800;150.804;2022-07-03T10:23:16;14.00;99.90
57576;DHT22;43412;-33.800;150.804;2022-07-03T10:25:44;14.00;99.90
57576;DHT22;43412;-33.800;150.804;2022-07-03T10:28:15;14.00;99.90
57576;DHT22;43412;-33.800;150.804;2022-07-03T10:30:47;14.00;99.90
57576;DHT22;43412;-33.800;150.804;2022-07-03T10:33:14;14.00;99.90
57576;DHT22;43412;-33.800;150.804;2022-07-03T10:35:52;14.10;99.90
57576;DHT22;43412;-33.800;150.804;2022-07-03T10:41:25;14.00;99.90
57576;DHT22;43412;-33.800;150.804;2022-07-03T10:44:14;14.10;99.90
57576;DHT22;43412;-33.800;150.804;2022-07-03T10:47:00;14.10;99.90
57576;DHT22;43412;-33.800;150.804;2022-07-03T10:49:28;14.10;99.90
57576;DHT22;43412;-33.800;150.804;2022-07-03T10:52:03;14.10;99.90
57576;DHT22;43412;-33.800;150.804;2022-07-03T10:54:31;14.10;99.90
57576;DHT22;43412;-33.800;150.804;2022-07-03T11:07:28;14.10;99.90
57576;DHT22;43412;-33.800;150.804;2022-07-03T11:15:42;14.10;99.90
57576;DHT22;43412;-33.800;150.804;2022-07-03T11:18:26;14.10;99.90
57576;DHT22;43412;-33.800;150.804;2022-07-03T11:26:18;14.20;99.90
57576;DHT22;43412;-33.800;150.804;2022-07-03T11:33:51;14.20;99.90
57576;DHT22;43412;-33.800;150.804;2022-07-03T11:36:30;14.20;99.90
57576;DHT22;43412;-33.800;150.804;2022-07-03T11:44:06;14.10;99.90
57576;DHT22;43412;-33.800;150.804;2022-07-03T11:46:35;14.10;99.90
57576;DHT22;43412;-33.800;150.804;2022-07-03T11:49:11;14.10;99.90
57576;DHT22;43412;-33.800;150.804;2022-07-03T11:51:42;14.10;99.90
57576;DHT22;43412;-33.800;150.804;2022-07-03T11:54:10;14.10;99.90
57576;DHT22;43412;-33.800;150.804;2022-07-03T11:56:37;14.20;99.90
57576;DHT22;43412;-33.800;150.804;2022-07-03T11:59:07;14.10;99.90
57576;DHT22;43412;-33.800;150.804;2022-07-03T12:01:37;14.20;99.90
57576;DHT22;43412;-33.800;150.804;2022-07-03T12:06:47;14.20;99.90
57576;DHT22;43412;-33.800;150.804;2022-07-03T12:09:32;14.20;99.90
57576;DHT22;43412;-33.800;150.804;2022-07-03T12:12:12;14.20;99.90
57576;DHT22;43412;-33.800;150.804;2022-07-03T12:17:16;14.10;99.90
57576;DHT22;43412;-33.800;150.804;2022-07-03T12:22:24;14.10;99.90
57576;DHT22;43412;-33.800;150.804;2022-07-03T12:27:30;14.20;99.90
57576;DHT22;43412;-33.800;150.804;2022-07-03T12:29:59;14.20;99.90
57576;DHT22;43412;-33.800;150.804;2022-07-03T12:32:27;14.20;99.90
57576;DHT22;43412;-33.800;150.804;2022-07-03T12:34:55;14.20;99.90
57576;DHT22;43412;-33.800;150.804;2022-07-03T12:37:52;14.20;99.90
57576;DHT22;43412;-33.800;150.804;2022-07-03T12:40:19;14.20;99.90
57576;DHT22;43412;-33.800;150.804;2022-07-03T12:42:48;14.10;99.90
57576;DHT22;43412;-33.800;150.804;2022-07-03T12:45:23;14.10;99.90
57576;DHT22;43412;-33.800;150.804;2022-07-03T12:48:03;14.10;99.90
57576;DHT22;43412;-33.800;150.804;2022-07-03T12:50:50;14.10;99.90
57576;DHT22;43412;-33.800;150.804;2022-07-03T12:53:31;14.10;99.90
57576;DHT22;43412;-33.800;150.804;2022-07-03T12:56:06;14.10;99.90
57576;DHT22;43412;-33.800;150.804;2022-07-03T12:58:39;14.10;99.90
57576;DHT22;43412;-33.800;150.804;2022-07-03T13:01:30;14.10;99.90
57576;DHT22;43412;-33.800;150.804;2022-07-03T13:04:00;14.10;99.90
57576;DHT22;43412;-33.800;150.804;2022-07-03T13:06:27;14.10;99.90
57576;DHT22;43412;-33.800;150.804;2022-07-03T13:09:02;14.10;99.90
57576;DHT22;43412;-33.800;150.804;2022-07-03T13:11:38;14.10;99.90
57576;DHT22;43412;-33.800;150.804;2022-07-03T13:14:16;14.20;99.90
57576;DHT22;43412;-33.800;150.804;2022-07-03T13:16:47;14.20;99.90
57576;DHT22;43412;-33.800;150.804;2022-07-03T13:19:17;14.20;99.90
57576;DHT22;43412;-33.800;150.804;2022-07-03T13:21:45;14.20;99.90
57576;DHT22;43412;-33.800;150.804;2022-07-03T13:24:14;14.20;99.90
57576;DHT22;43412;-33.800;150.804;2022-07-03T13:26:42;14.20;99.90
57576;DHT22;43412;-33.800;150.804;2022-07-03T13:29:09;14.20;99.90
57576;DHT22;43412;-33.800;150.804;2022-07-03T13:31:37;14.30;99.90
57576;DHT22;43412;-33.800;150.804;2022-07-03T13:34:04;14.30;99.90
57576;DHT22;43412;-33.800;150.804;2022-07-03T13:36:33;14.30;99.90
57576;DHT22;43412;-33.800;150.804;2022-07-03T13:39:00;14.30;99.90
57576;DHT22;43412;-33.800;150.804;2022-07-03T13:41:28;14.30;99.90
57576;DHT22;43412;-33.800;150.804;2022-07-03T13:43:55;14.30;99.90
57576;DHT22;43412;-33.800;150.804;2022-07-03T13:46:23;14.30;99.90
57576;DHT22;43412;-33.800;150.804;2022-07-03T13:48:51;14.30;99.90
57576;DHT22;43412;-33.800;150.804;2022-07-03T13:51:20;14.30;99.90
57576;DHT22;43412;-33.800;150.804;2022-07-03T13:53:47;14.30;99.90
57576;DHT22;43412;-33.800;150.804;2022-07-03T13:56:16;14.40;99.90
57576;DHT22;43412;-33.800;150.804;2022-07-03T13:58:44;14.40;99.90
57576;DHT22;43412;-33.800;150.804;2022-07-03T14:01:12;14.40;99.90
57576;DHT22;43412;-33.800;150.804;2022-07-03T14:03:40;14.40;99.90
57576;DHT22;43412;-33.800;150.804;2022-07-03T14:06:07;14.40;99.90
57576;DHT22;43412;-33.800;150.804;2022-07-03T14:08:35;14.40;99.90
57576;DHT22;43412;-33.800;150.804;2022-07-03T14:11:02;14.50;99.90
57576;DHT22;43412;-33.800;150.804;2022-07-03T14:13:29;14.50;99.90
57576;DHT22;43412;-33.800;150.804;2022-07-03T14:15:57;14.50;99.90
57576;DHT22;43412;-33.800;150.804;2022-07-03T14:18:26;14.40;99.90
57576;DHT22;43412;-33.800;150.804;2022-07-03T14:20:53;14.50;99.90
57576;DHT22;43412;-33.800;150.804;2022-07-03T14:23:20;14.50;99.90
57576;DHT22;43412;-33.800;150.804;2022-07-03T14:25:48;14.50;99.90
57576;DHT22;43412;-33.800;150.804;2022-07-03T14:28:15;14.50;99.90
57576;DHT22;43412;-33.800;150.804;2022-07-03T14:31:00;14.50;99.90
57576;DHT22;43412;-33.800;150.804;2022-07-03T14:33:46;14.50;99.90
57576;DHT22;43412;-33.800;150.804;2022-07-03T14:36:16;14.50;99.90
57576;DHT22;43412;-33.800;150.804;2022-07-03T14:38:44;14.50;99.90
57576;DHT22;43412;-33.800;150.804;2022-07-03T14:41:12;14.50;99.90
57576;DHT22;43412;-33.800;150.804;2022-07-03T14:43:39;14.50;99.90
57576;DHT22;43412;-33.800;150.804;2022-07-03T14:46:07;14.60;99.90
57576;DHT22;43412;-33.800;150.804;2022-07-03T14:48:34;14.60;99.90
57576;DHT22;43412;-33.800;150.804;2022-07-03T14:51:01;14.60;99.90
57576;DHT22;43412;-33.800;150.804;2022-07-03T14:53:29;14.60;99.90
57576;DHT22;43412;-33.800;150.804;2022-07-03T14:55:56;14.60;99.90
57576;DHT22;43412;-33.800;150.804;2022-07-03T14:58:27;14.60;99.90
57576;DHT22;43412;-33.800;150.804;2022-07-03T15:00:56;14.60;99.90
57576;DHT22;43412;-33.800;150.804;2022-07-03T15:03:29;14.60;99.90
57576;DHT22;43412;-33.800;150.804;2022-07-03T15:06:01;14.60;99.90
57576;DHT22;43412;-33.800;150.804;2022-07-03T15:08:48;14.70;99.90
57576;DHT22;43412;-33.800;150.804;2022-07-03T15:11:34;14.70;99.90
57576;DHT22;43412;-33.800;150.804;2022-07-03T15:14:25;14.70;99.90
57576;DHT22;43412;-33.800;150.804;2022-07-03T15:16:54;14.80;99.90
57576;DHT22;43412;-33.800;150.804;2022-07-03T15:19:23;14.70;99.90
57576;DHT22;43412;-33.800;150.804;2022-07-03T15:21:52;14.70;99.90
57576;DHT22;43412;-33.800;150.804;2022-07-03T15:24:20;14.70;99.90
57576;DHT22;43412;-33.800;150.804;2022-07-03T15:26:53;14.70;99.90
57576;DHT22;43412;-33.800;150.804;2022-07-03T15:29:20;14.60;99.90
57576;DHT22;43412;-33.800;150.804;2022-07-03T15:31:48;14.60;99.90
57576;DHT22;43412;-33.800;150.804;2022-07-03T15:34:16;14.60;99.90
57576;DHT22;43412;-33.800;150.804;2022-07-03T15:36:51;14.60;99.90
57576;DHT22;43412;-33.800;150.804;2022-07-03T15:39:30;14.60;99.90
57576;DHT22;43412;-33.800;150.804;2022-07-03T15:42:24;14.60;99.90
57576;DHT22;43412;-33.800;150.804;2022-07-03T15:45:03;14.60;99.90
57576;DHT22;43412;-33.800;150.804;2022-07-03T15:53:27;14.50;99.90
57576;DHT22;43412;-33.800;150.804;2022-07-03T15:55:58;14.50;99.90
57576;DHT22;43412;-33.800;150.804;2022-07-03T15:58:33;14.50;99.90
57576;DHT22;43412;-33.800;150.804;2022-07-03T16:01:09;14.50;99.90
57576;DHT22;43412;-33.800;150.804;2022-07-03T16:04:08;14.50;99.90
57576;DHT22;43412;-33.800;150.804;2022-07-03T16:06:42;14.50;99.90
57576;DHT22;43412;-33.800;150.804;2022-07-03T16:09:11;14.50;99.90
57576;DHT22;43412;-33.800;150.804;2022-07-03T16:11:38;14.50;99.90
57576;DHT22;43412;-33.800;150.804;2022-07-03T16:14:06;14.50;99.90
57576;DHT22;43412;-33.800;150.804;2022-07-03T16:16:33;14.50;99.90
57576;DHT22;43412;-33.800;150.804;2022-07-03T16:19:03;14.50;99.90
57576;DHT22;43412;-33.800;150.804;2022-07-03T16:21:31;14.50;99.90
57576;DHT22;43412;-33.800;150.804;2022-07-03T16:23:59;14.50;99.90
57576;DHT22;43412;-33.800;150.804;2022-07-03T16:26:29;14.50;99.90
57576;DHT22;43412;-33.800;150.804;2022-07-03T16:28:57;14.50;99.90
57576;DHT22;43412;-33.800;150.804;2022-07-03T16:31:44;14.50;99.90
57576;DHT22;43412;-33.800;150.804;2022-07-03T16:34:27;14.50;99.90
57576;DHT22;43412;-33.800;150.804;2022-07-03T16:36:58;14.50;99.90
57576;DHT22;43412;-33.800;150.804;2022-07-03T16:39:52;14.50;99.90
57576;DHT22;43412;-33.800;150.804;2022-07-03T16:42:22;14.50;99.90
57576;DHT22;43412;-33.800;150.804;2022-07-03T16:44:50;14.50;99.90
57576;DHT22;43412;-33.800;150.804;2022-07-03T16:47:18;14.50;99.90
57576;DHT22;43412;-33.800;150.804;2022-07-03T16:49:50;14.40;99.90
57576;DHT22;43412;-33.800;150.804;2022-07-03T16:52:18;14.40;99.90
57576;DHT22;43412;-33.800;150.804;2022-07-03T16:54:50;14.40;99.90